Time;durP1;ratioP1;P1;durP2;ratioP2;P2;SDS_P1;SDS_P2;PMS_P1;PMS_P2;Temp;Humidity;BMP_temperature;BMP_pressure;BME280_temperature;BME280_humidity;BME280_pressure;Samples;Min_cycle;Max_cycle;Signal;HPM_P1;HPM_P2
2022/01/26 00:07:16;;;;;;;88.80;42.73;;;;;;;;;;4995774;28;20212;-62
2022/01/26 00:09:42;;;;;;;87.77;42.20;;;;;;;;;;4995498;28;20217;-62
2022/01/26 00:12:09;;;;;;;85.70;42.20;;;;;;;;;;4978603;28;20209;-62
2022/01/26 00:14:34;;;;;;;88.87;42.33;;;;;;;;;;4995929;28;20244;-62
2022/01/26 00:17:01;;;;;;;91.37;43.13;;;;;;;;;;4970186;28;20561;-62
2022/01/26 00:19:41;;;;;;;91.60;42.80;;;;;;;;;;4976214;28;20214;-62
2022/01/26 00:22:07;;;;;;;87.13;42.35;;;;;;;;;;4962118;28;20716;-63
2022/01/26 00:25:05;;;;;;;91.10;43.23;;;;;;;;;;5014563;28;20246;-62
2022/01/26 00:27:34;;;;;;;91.87;43.10;;;;;;;;;;5014751;28;20219;-62
2022/01/26 00:31:12;;;;;;;90.50;42.60;;;;;;;;;;5015134;28;20251;-62
2022/01/26 00:41:03;;;;;;;91.53;43.13;;;;;;;;;;5015094;28;20236;-62
2022/01/26 00:43:28;;;;;;;91.00;43.00;;;;;;;;;;5014868;28;20672;-62
2022/01/26 00:45:55;;;;;;;90.70;42.37;;;;;;;;;;5014073;28;20223;-62
2022/01/26 00:48:21;;;;;;;90.90;43.33;;;;;;;;;;5014497;28;20223;-62
2022/01/26 00:50:50;;;;;;;86.23;41.70;;;;;;;;;;5015109;28;20216;-62
2022/01/26 00:53:16;;;;;;;87.20;41.60;;;;;;;;;;4996900;28;20246;-62
2022/01/26 00:55:41;;;;;;;91.23;42.37;;;;;;;;;;4997284;28;20299;-62
2022/01/26 00:58:06;;;;;;;91.07;42.73;;;;;;;;;;5014255;28;20223;-62
2022/01/26 01:00:32;;;;;;;91.00;42.07;;;;;;;;;;5005075;28;20319;-62
2022/01/26 01:02:57;;;;;;;95.00;43.10;;;;;;;;;;4994246;28;20225;-62
2022/01/26 01:05:30;;;;;;;93.17;43.07;;;;;;;;;;4977431;28;20206;-62
2022/01/26 01:08:03;;;;;;;86.47;39.97;;;;;;;;;;4994234;28;20240;-62
2022/01/26 01:10:28;;;;;;;87.80;40.93;;;;;;;;;;4995032;28;20570;-62
2022/01/26 01:12:57;;;;;;;94.23;42.77;;;;;;;;;;4994206;28;20292;-62
2022/01/26 01:15:24;;;;;;;91.60;42.43;;;;;;;;;;4977426;28;20228;-62
2022/01/26 01:17:56;;;;;;;93.20;43.63;;;;;;;;;;4963031;28;20210;-62
2022/01/26 01:20:52;;;;;;;93.27;42.07;;;;;;;;;;4974348;28;20217;-62
2022/01/26 01:28:53;;;;;;;96.47;44.10;;;;;;;;;;5013329;28;20604;-62
2022/01/26 01:31:39;;;;;;;97.43;44.37;;;;;;;;;;5013359;28;20219;-62
2022/01/26 01:34:03;;;;;;;93.60;42.53;;;;;;;;;;5012897;28;20219;-62
2022/01/26 01:36:29;;;;;;;100.47;44.30;;;;;;;;;;5014066;28;20212;-62
2022/01/26 01:38:55;;;;;;;92.13;41.90;;;;;;;;;;5014436;28;20738;-62
2022/01/26 01:41:20;;;;;;;93.20;41.90;;;;;;;;;;5012714;28;20347;-62
2022/01/26 01:43:46;;;;;;;96.73;43.90;;;;;;;;;;5013983;28;20671;-62
2022/01/26 01:46:11;;;;;;;95.20;42.57;;;;;;;;;;4995776;28;20219;-62
2022/01/26 01:48:36;;;;;;;97.27;43.20;;;;;;;;;;5013022;28;20201;-62
2022/01/26 01:51:05;;;;;;;95.37;43.93;;;;;;;;;;5013407;28;20216;-62
2022/01/26 01:53:37;;;;;;;90.63;40.50;;;;;;;;;;5013969;28;20200;-62
2022/01/26 01:56:03;;;;;;;91.50;40.43;;;;;;;;;;4996246;28;20583;-62
2022/01/26 01:58:28;;;;;;;95.73;42.40;;;;;;;;;;5013456;28;20220;-62
2022/01/26 02:00:54;;;;;;;96.73;42.97;;;;;;;;;;4984300;28;20216;-62
2022/01/26 02:03:19;;;;;;;90.83;40.43;;;;;;;;;;4992819;28;20225;-62
2022/01/26 02:05:44;;;;;;;87.47;39.30;;;;;;;;;;4994137;28;20792;-62
2022/01/26 02:08:09;;;;;;;85.17;38.67;;;;;;;;;;4993244;28;20213;-62
2022/01/26 02:10:36;;;;;;;80.87;35.97;;;;;;;;;;4993222;28;20763;-62
2022/01/26 02:13:05;;;;;;;75.60;35.13;;;;;;;;;;4993463;28;20217;-63
2022/01/26 02:15:41;;;;;;;81.70;37.60;;;;;;;;;;4994144;28;20205;-62
2022/01/26 02:18:18;;;;;;;76.43;36.43;;;;;;;;;;4975659;28;20237;-62
2022/01/26 02:55:57;;;;;;;72.97;34.07;;;;;;;;;;5012808;28;20242;-62
2022/01/26 03:01:17;;;;;;;66.10;32.00;;;;;;;;;;4999470;28;20221;-62
2022/01/26 03:03:53;;;;;;;69.23;31.93;;;;;;;;;;4992766;28;20244;-62
2022/01/26 03:06:25;;;;;;;69.43;32.13;;;;;;;;;;4991913;28;20267;-62
2022/01/26 03:08:58;;;;;;;67.70;31.37;;;;;;;;;;4992935;28;20709;-62
2022/01/26 03:11:27;;;;;;;66.43;31.83;;;;;;;;;;4992643;28;20299;-62
2022/01/26 03:14:00;;;;;;;66.80;31.80;;;;;;;;;;4992282;28;20256;-62
2022/01/26 03:16:33;;;;;;;65.43;30.83;;;;;;;;;;4989928;28;20220;-62
2022/01/26 03:21:33;;;;;;;72.30;32.53;;;;;;;;;;4972336;28;20563;-62
2022/01/26 03:29:41;;;;;;;70.43;32.80;;;;;;;;;;5016163;28;20694;-62
2022/01/26 03:34:54;;;;;;;68.83;33.50;;;;;;;;;;5015742;28;20227;-62
2022/01/26 03:37:23;;;;;;;68.50;32.27;;;;;;;;;;4998863;28;20266;-62
2022/01/26 03:39:50;;;;;;;72.20;33.20;;;;;;;;;;5016544;28;20227;-62
2022/01/26 03:42:15;;;;;;;68.80;34.10;;;;;;;;;;5015185;28;20228;-62
2022/01/26 03:44:41;;;;;;;72.47;34.30;;;;;;;;;;5016324;28;20258;-62
2022/01/26 03:47:06;;;;;;;76.00;36.07;;;;;;;;;;5015814;28;20556;-62
2022/01/26 03:49:32;;;;;;;72.30;35.43;;;;;;;;;;4997459;28;20212;-62
2022/01/26 03:51:57;;;;;;;76.63;36.37;;;;;;;;;;5016478;28;20609;-62
2022/01/26 03:54:23;;;;;;;78.80;36.67;;;;;;;;;;4997953;28;20208;-62
2022/01/26 03:56:48;;;;;;;76.23;37.03;;;;;;;;;;5015611;28;20239;-62
2022/01/26 03:59:13;;;;;;;78.97;37.67;;;;;;;;;;5015512;28;20263;-63
2022/01/26 04:01:38;;;;;;;80.23;38.17;;;;;;;;;;4997514;28;20227;-62
2022/01/26 04:04:04;;;;;;;81.33;37.77;;;;;;;;;;4978092;28;20707;-62
2022/01/26 04:06:30;;;;;;;78.00;37.77;;;;;;;;;;4996331;28;20221;-62
2022/01/26 04:08:56;;;;;;;81.90;40.47;;;;;;;;;;4995231;28;20213;-62
2022/01/26 04:13:56;;;;;;;80.37;39.63;;;;;;;;;;4996090;28;20216;-62
2022/01/26 04:16:22;;;;;;;80.87;39.07;;;;;;;;;;4992564;28;20560;-62
2022/01/26 04:18:48;;;;;;;83.77;38.97;;;;;;;;;;4976195;28;20225;-62
2022/01/26 04:21:32;;;;;;;83.47;38.70;;;;;;;;;;4976193;28;20217;-62
2022/01/26 04:26:29;;;;;;;87.20;40.53;;;;;;;;;;5015267;28;20209;-62
2022/01/26 04:29:00;;;;;;;82.47;37.80;;;;;;;;;;5015164;28;20231;-62
2022/01/26 04:31:25;;;;;;;75.27;36.70;;;;;;;;;;5014465;28;20287;-62
2022/01/26 04:33:52;;;;;;;78.33;36.70;;;;;;;;;;4978230;28;20312;-62
2022/01/26 04:36:24;;;;;;;77.30;35.80;;;;;;;;;;5012522;28;20342;-62
2022/01/26 04:38:54;;;;;;;76.70;36.40;;;;;;;;;;4996902;28;20235;-62
2022/01/26 04:43:56;;;;;;;77.60;37.40;;;;;;;;;;4963831;28;20222;-62
2022/01/26 04:46:21;;;;;;;79.43;37.03;;;;;;;;;;4975776;28;20301;-62
2022/01/26 04:48:47;;;;;;;87.67;39.60;;;;;;;;;;4975896;28;20296;-62
2022/01/26 04:51:12;;;;;;;85.17;40.73;;;;;;;;;;4974781;28;20242;-62
2022/01/26 04:53:37;;;;;;;84.87;41.67;;;;;;;;;;4961679;28;20697;-62
2022/01/26 04:56:02;;;;;;;89.20;42.23;;;;;;;;;;4981316;28;20213;-62
2022/01/26 04:58:28;;;;;;;92.53;44.80;;;;;;;;;;4966135;28;20704;-62
2022/01/26 05:00:53;;;;;;;94.80;44.30;;;;;;;;;;4987455;28;20220;-62
2022/01/26 05:03:18;;;;;;;98.03;45.00;;;;;;;;;;4994662;28;20228;-62
2022/01/26 05:05:43;;;;;;;94.50;43.83;;;;;;;;;;4977199;28;20217;-62
2022/01/26 05:08:09;;;;;;;97.17;44.53;;;;;;;;;;4994724;28;20587;-62
2022/01/26 05:10:36;;;;;;;97.27;45.63;;;;;;;;;;4995101;28;20300;-62
2022/01/26 05:13:02;;;;;;;98.77;46.60;;;;;;;;;;4993962;28;20584;-62
2022/01/26 05:15:27;;;;;;;95.93;45.53;;;;;;;;;;4995330;28;20216;-62
2022/01/26 05:17:52;;;;;;;99.47;45.30;;;;;;;;;;4980326;28;20699;-62
2022/01/26 05:20:18;;;;;;;91.40;43.13;;;;;;;;;;4974334;28;20275;-62
2022/01/26 05:22:44;;;;;;;92.03;44.03;;;;;;;;;;4952755;28;20259;-62
2022/01/26 05:25:10;;;;;;;100.33;45.83;;;;;;;;;;5013796;28;20731;-62
2022/01/26 05:27:35;;;;;;;99.67;46.07;;;;;;;;;;5013792;28;20335;-62
2022/01/26 05:30:00;;;;;;;92.50;43.90;;;;;;;;;;4996342;28;20270;-62
2022/01/26 05:32:26;;;;;;;93.60;44.00;;;;;;;;;;5014169;28;20216;-62
2022/01/26 05:34:51;;;;;;;98.13;46.37;;;;;;;;;;4995899;28;20243;-62
2022/01/26 05:37:16;;;;;;;104.43;46.60;;;;;;;;;;4978889;28;20676;-62
2022/01/26 05:39:42;;;;;;;100.70;45.03;;;;;;;;;;5014098;28;20577;-62
2022/01/26 05:42:07;;;;;;;96.57;46.10;;;;;;;;;;5012785;28;20229;-62
2022/01/26 05:44:32;;;;;;;96.37;45.13;;;;;;;;;;4996579;28;20209;-62
2022/01/26 05:46:58;;;;;;;100.80;45.70;;;;;;;;;;5013281;28;20574;-62
2022/01/26 05:49:24;;;;;;;100.97;47.63;;;;;;;;;;4995497;28;20223;-62
2022/01/26 05:51:50;;;;;;;96.73;44.77;;;;;;;;;;4996752;28;20217;-62
2022/01/26 05:54:16;;;;;;;96.63;46.07;;;;;;;;;;5012621;28;20970;-62
2022/01/26 05:56:42;;;;;;;102.40;46.53;;;;;;;;;;5014006;28;20232;-62
2022/01/26 05:59:07;;;;;;;104.00;46.33;;;;;;;;;;5013049;28;20241;-61
2022/01/26 06:01:33;;;;;;;98.23;46.20;;;;;;;;;;4995817;28;20233;-61
2022/01/26 06:03:58;;;;;;;108.57;50.03;;;;;;;;;;4994014;28;20225;-62
2022/01/26 06:06:23;;;;;;;107.13;47.40;;;;;;;;;;4993637;28;20216;-62
2022/01/26 06:08:48;;;;;;;96.00;45.70;;;;;;;;;;4993332;28;20245;-61
2022/01/26 06:11:14;;;;;;;103.83;47.70;;;;;;;;;;4993269;28;20220;-62
2022/01/26 06:13:39;;;;;;;98.70;46.37;;;;;;;;;;4994365;28;20217;-62
2022/01/26 06:16:04;;;;;;;103.17;47.23;;;;;;;;;;4992630;28;20220;-62
2022/01/26 06:18:30;;;;;;;105.47;46.83;;;;;;;;;;4974412;28;20214;-62
2022/01/26 06:20:55;;;;;;;105.13;46.93;;;;;;;;;;4974502;28;20226;-62
2022/01/26 06:23:24;;;;;;;100.47;47.47;;;;;;;;;;4982057;28;20233;-61
2022/01/26 06:25:51;;;;;;;110.77;48.77;;;;;;;;;;4993618;28;20217;-62
2022/01/26 06:28:16;;;;;;;103.53;48.50;;;;;;;;;;4993361;28;20220;-62
2022/01/26 06:30:44;;;;;;;106.57;48.17;;;;;;;;;;4992847;28;20221;-62
2022/01/26 06:33:09;;;;;;;104.20;46.93;;;;;;;;;;4992074;28;20205;-62
2022/01/26 06:35:35;;;;;;;106.03;47.67;;;;;;;;;;4993526;28;20304;-62
2022/01/26 06:38:00;;;;;;;109.03;49.20;;;;;;;;;;4992632;28;20209;-62
2022/01/26 06:40:25;;;;;;;109.67;48.67;;;;;;;;;;4992729;28;20205;-61
2022/01/26 06:43:01;;;;;;;107.03;47.90;;;;;;;;;;4992045;28;20720;-61
2022/01/26 06:45:30;;;;;;;112.80;50.50;;;;;;;;;;4992314;28;20208;-60
2022/01/26 06:48:13;;;;;;;107.40;48.60;;;;;;;;;;4993398;28;20221;-61
2022/01/26 06:50:39;;;;;;;112.03;57.40;;;;;;;;;;4991431;28;20420;-60
2022/01/26 06:53:04;;;;;;;110.97;54.00;;;;;;;;;;4992687;28;20800;-62
2022/01/26 06:55:30;;;;;;;100.10;48.53;;;;;;;;;;4993096;28;20213;-60
2022/01/26 06:57:55;;;;;;;107.63;50.30;;;;;;;;;;4992393;28;20224;-60
2022/01/26 07:00:20;;;;;;;102.43;47.50;;;;;;;;;;4984748;28;20225;-59
2022/01/26 07:02:46;;;;;;;111.57;49.53;;;;;;;;;;4973826;28;20226;-59
2022/01/26 07:05:12;;;;;;;103.67;48.93;;;;;;;;;;4972418;28;20684;-60
2022/01/26 07:07:37;;;;;;;102.63;46.17;;;;;;;;;;4973471;28;20216;-60
2022/01/26 07:10:03;;;;;;;104.27;50.10;;;;;;;;;;4971923;28;20225;-60
2022/01/26 07:12:28;;;;;;;107.77;50.13;;;;;;;;;;4973055;28;20276;-59
2022/01/26 07:22:46;;;;;;;111.07;49.27;;;;;;;;;;4968740;28;20228;-60
2022/01/26 07:25:11;;;;;;;110.43;50.07;;;;;;;;;;4994332;28;20205;-61
2022/01/26 07:27:37;;;;;;;107.03;47.87;;;;;;;;;;5011688;28;20526;-61
2022/01/26 07:30:03;;;;;;;117.90;51.37;;;;;;;;;;5012135;28;20691;-61
2022/01/26 07:32:29;;;;;;;114.33;56.73;;;;;;;;;;4994136;28;20212;-61
2022/01/26 07:34:56;;;;;;;122.27;54.50;;;;;;;;;;5012315;28;20231;-61
2022/01/26 07:37:24;;;;;;;109.17;48.40;;;;;;;;;;5011958;28;20208;-62
2022/01/26 07:40:02;;;;;;;117.33;51.10;;;;;;;;;;5011474;28;20221;-62
2022/01/26 07:42:27;;;;;;;114.27;50.87;;;;;;;;;;4994461;28;20224;-63
2022/01/26 07:44:52;;;;;;;111.03;49.60;;;;;;;;;;5012710;28;20286;-64
2022/01/26 07:47:17;;;;;;;118.00;49.90;;;;;;;;;;5010974;28;20216;-65
2022/01/26 07:49:43;;;;;;;128.47;56.63;;;;;;;;;;5012559;28;20216;-60
2022/01/26 07:52:08;;;;;;;127.27;54.47;;;;;;;;;;4994047;28;20560;-60
2022/01/26 07:54:33;;;;;;;130.50;59.20;;;;;;;;;;5011421;28;20668;-61
2022/01/26 07:57:00;;;;;;;117.47;53.20;;;;;;;;;;5012250;28;20220;-61
2022/01/26 07:59:25;;;;;;;118.80;50.47;;;;;;;;;;5012134;28;20224;-62
2022/01/26 08:01:51;;;;;;;119.37;51.87;;;;;;;;;;4974372;28;20213;-61
2022/01/26 08:04:16;;;;;;;134.17;56.60;;;;;;;;;;4992155;28;20225;-62
2022/01/26 08:06:41;;;;;;;123.20;51.67;;;;;;;;;;4992555;28;20209;-60
2022/01/26 08:09:06;;;;;;;125.03;50.90;;;;;;;;;;4991167;28;20225;-61
2022/01/26 08:11:32;;;;;;;120.50;51.47;;;;;;;;;;4994106;28;20205;-61
2022/01/26 08:13:58;;;;;;;127.07;54.03;;;;;;;;;;4996169;28;20275;-61
2022/01/26 08:16:23;;;;;;;120.43;51.87;;;;;;;;;;4974829;28;20680;-61
2022/01/26 08:18:49;;;;;;;121.57;51.20;;;;;;;;;;4976537;28;20581;-61
2022/01/26 08:21:15;;;;;;;126.23;52.03;;;;;;;;;;4966524;28;20228;-61
2022/01/26 08:23:43;;;;;;;128.57;56.83;;;;;;;;;;4990900;28;20273;-61
2022/01/26 08:26:08;;;;;;;131.20;54.63;;;;;;;;;;5014964;28;20232;-60
2022/01/26 08:28:38;;;;;;;118.80;51.70;;;;;;;;;;5014876;28;20208;-60
2022/01/26 08:31:03;;;;;;;128.53;60.77;;;;;;;;;;5014145;28;20212;-60
2022/01/26 08:33:29;;;;;;;135.37;59.13;;;;;;;;;;5015327;28;20243;-60
2022/01/26 08:35:54;;;;;;;125.37;56.33;;;;;;;;;;5014403;28;20680;-60
2022/01/26 08:38:19;;;;;;;126.17;55.07;;;;;;;;;;4997170;28;20220;-60
2022/01/26 08:40:46;;;;;;;123.60;55.37;;;;;;;;;;5015014;28;20580;-60
2022/01/26 08:43:12;;;;;;;124.13;56.20;;;;;;;;;;5006562;28;20229;-60
2022/01/26 08:45:37;;;;;;;123.50;51.83;;;;;;;;;;4995513;28;20660;-60
2022/01/26 08:48:02;;;;;;;127.23;54.23;;;;;;;;;;4994877;28;20221;-60
2022/01/26 08:50:28;;;;;;;127.57;61.87;;;;;;;;;;4994341;28;20209;-59
2022/01/26 08:52:53;;;;;;;125.80;55.07;;;;;;;;;;4995421;28;20223;-59
2022/01/26 08:55:18;;;;;;;119.67;49.90;;;;;;;;;;4994857;28;20217;-59
2022/01/26 08:57:43;;;;;;;123.30;50.93;;;;;;;;;;4976850;28;20232;-60
2022/01/26 09:00:09;;;;;;;132.20;56.93;;;;;;;;;;4989394;28;20219;-60
2022/01/26 09:02:35;;;;;;;125.90;57.50;;;;;;;;;;4975079;28;20238;-59
2022/01/26 09:05:00;;;;;;;123.50;52.57;;;;;;;;;;4975164;28;20212;-61
2022/01/26 09:07:25;;;;;;;125.47;54.10;;;;;;;;;;4975305;28;20685;-61
2022/01/26 09:09:51;;;;;;;125.20;59.10;;;;;;;;;;4958384;28;20217;-59
2022/01/26 09:12:17;;;;;;;118.60;56.33;;;;;;;;;;4974128;28;20217;-60
2022/01/26 09:14:43;;;;;;;121.60;51.00;;;;;;;;;;4975160;28;20210;-60
2022/01/26 09:17:08;;;;;;;120.00;55.33;;;;;;;;;;4983432;28;20562;-60
2022/01/26 09:19:34;;;;;;;125.23;56.10;;;;;;;;;;4994070;28;20209;-60
2022/01/26 09:22:00;;;;;;;119.90;54.30;;;;;;;;;;4977179;28;20252;-60
2022/01/26 09:24:26;;;;;;;123.83;58.83;;;;;;;;;;4982898;28;20237;-60
2022/01/26 09:26:51;;;;;;;114.80;54.10;;;;;;;;;;4992887;28;20221;-60
2022/01/26 09:29:16;;;;;;;116.77;52.33;;;;;;;;;;4993245;28;20220;-60
2022/01/26 09:31:42;;;;;;;115.70;57.10;;;;;;;;;;4994771;28;20251;-60
2022/01/26 09:34:07;;;;;;;126.90;61.37;;;;;;;;;;4993371;28;20684;-60
2022/01/26 09:36:33;;;;;;;118.33;55.80;;;;;;;;;;4994715;28;20359;-60
2022/01/26 09:38:58;;;;;;;122.27;56.97;;;;;;;;;;4994538;28;20576;-60
2022/01/26 09:41:23;;;;;;;116.37;52.40;;;;;;;;;;4993096;28;20220;-61
2022/01/26 09:43:49;;;;;;;117.07;52.17;;;;;;;;;;4994112;28;20292;-60
2022/01/26 09:46:14;;;;;;;117.07;53.53;;;;;;;;;;4993220;28;20715;-61
2022/01/26 09:48:41;;;;;;;116.40;50.40;;;;;;;;;;4994290;28;20209;-60
2022/01/26 09:51:06;;;;;;;110.73;50.43;;;;;;;;;;4993917;28;20733;-60
2022/01/26 09:53:33;;;;;;;112.73;49.50;;;;;;;;;;4976131;28;20217;-61
2022/01/26 09:55:59;;;;;;;104.17;48.60;;;;;;;;;;4994029;28;20284;-60
2022/01/26 09:58:24;;;;;;;104.50;46.23;;;;;;;;;;4993263;28;20209;-61
2022/01/26 10:00:57;;;;;;;109.70;49.10;;;;;;;;;;4964858;28;20218;-60
2022/01/26 10:03:24;;;;;;;113.00;50.30;;;;;;;;;;4956881;28;20308;-60
2022/01/26 10:05:49;;;;;;;102.90;49.57;;;;;;;;;;4957447;28;20218;-60
2022/01/26 10:16:02;;;;;;;109.63;50.63;;;;;;;;;;4959088;28;20273;-60
2022/01/26 10:18:28;;;;;;;90.33;44.27;;;;;;;;;;4992854;28;20680;-60
2022/01/26 10:20:56;;;;;;;111.57;51.97;;;;;;;;;;4976352;28;20208;-60
2022/01/26 10:23:22;;;;;;;95.27;48.70;;;;;;;;;;4982118;28;20308;-61
2022/01/26 10:25:59;;;;;;;90.97;44.80;;;;;;;;;;4993757;28;20216;-60
2022/01/26 10:28:24;;;;;;;97.17;46.97;;;;;;;;;;4991977;28;20212;-61
2022/01/26 10:30:49;;;;;;;95.37;48.10;;;;;;;;;;4992532;28;20553;-60
2022/01/26 10:33:15;;;;;;;90.13;44.87;;;;;;;;;;4993161;28;20240;-60
2022/01/26 10:35:40;;;;;;;82.70;40.27;;;;;;;;;;4992912;28;20299;-61
2022/01/26 10:38:06;;;;;;;84.97;42.30;;;;;;;;;;4993088;28;20224;-61
2022/01/26 10:40:32;;;;;;;87.17;43.33;;;;;;;;;;4993520;28;20240;-61
2022/01/26 10:43:05;;;;;;;90.93;43.10;;;;;;;;;;4992297;28;20280;-61
2022/01/26 10:45:34;;;;;;;85.27;40.50;;;;;;;;;;4993120;28;20250;-60
2022/01/26 10:48:10;;;;;;;90.73;43.67;;;;;;;;;;4993370;28;20221;-60
2022/01/26 10:53:05;;;;;;;91.30;42.53;;;;;;;;;;4991722;28;20217;-60
2022/01/26 10:55:30;;;;;;;83.63;41.87;;;;;;;;;;4993387;28;20209;-61
2022/01/26 10:57:56;;;;;;;84.27;40.47;;;;;;;;;;4990800;28;20275;-61
2022/01/26 11:00:21;;;;;;;77.97;39.67;;;;;;;;;;4985507;28;20220;-60
2022/01/26 11:02:48;;;;;;;73.27;37.67;;;;;;;;;;4973607;28;20261;-60
2022/01/26 11:05:13;;;;;;;75.57;37.47;;;;;;;;;;4972577;28;20210;-61
2022/01/26 11:07:40;;;;;;;70.60;37.53;;;;;;;;;;4972501;28;20209;-60
2022/01/26 11:10:06;;;;;;;73.17;37.33;;;;;;;;;;4973247;28;20360;-60
2022/01/26 11:12:32;;;;;;;66.83;35.17;;;;;;;;;;4972534;28;20292;-61
2022/01/26 11:15:04;;;;;;;73.77;38.47;;;;;;;;;;4973576;28;20217;-60
2022/01/26 11:17:33;;;;;;;68.53;34.77;;;;;;;;;;4961590;28;20214;-60
2022/01/26 11:19:59;;;;;;;78.17;36.47;;;;;;;;;;4954118;28;20214;-60
2022/01/26 11:22:28;;;;;;;66.47;34.57;;;;;;;;;;4958369;28;20209;-61
2022/01/26 11:24:54;;;;;;;62.07;33.53;;;;;;;;;;4972837;28;20308;-60
2022/01/26 11:27:19;;;;;;;61.40;33.03;;;;;;;;;;4973072;28;20252;-60
2022/01/26 11:29:48;;;;;;;61.93;35.03;;;;;;;;;;4971972;28;20217;-60
2022/01/26 11:32:20;;;;;;;64.07;34.90;;;;;;;;;;4971051;28;20558;-61
2022/01/26 11:34:47;;;;;;;62.10;31.77;;;;;;;;;;4973380;28;20228;-60
2022/01/26 11:37:15;;;;;;;60.07;32.10;;;;;;;;;;4971827;28;20697;-61
2022/01/26 11:45:02;;;;;;;63.00;31.63;;;;;;;;;;4973054;28;20228;-61
2022/01/26 11:45:10;;;;;;;63.17;31.27;;;;;;;;;;4972736;28;20213;-61
2022/01/26 11:47:38;;;;;;;60.83;31.37;;;;;;;;;;4976252;28;20297;-61
2022/01/26 11:50:05;;;;;;;61.53;30.63;;;;;;;;;;4976575;28;20584;-60
2022/01/26 11:52:35;;;;;;;58.40;29.57;;;;;;;;;;4976002;28;20213;-60
2022/01/26 11:55:00;;;;;;;60.80;30.87;;;;;;;;;;4975755;28;20591;-61
2022/01/26 11:57:39;;;;;;;78.53;38.30;;;;;;;;;;4976008;28;20301;-61
2022/01/26 12:00:07;;;;;;;66.53;33.03;;;;;;;;;;4970451;28;20277;-60
2022/01/26 12:02:49;;;;;;;62.97;31.20;;;;;;;;;;4956315;28;20573;-61
2022/01/26 12:05:19;;;;;;;67.63;34.23;;;;;;;;;;4957111;28;20254;-60
2022/01/26 12:07:46;;;;;;;62.17;32.77;;;;;;;;;;4955632;28;20236;-60
2022/01/26 12:10:19;;;;;;;56.90;28.07;;;;;;;;;;4962634;28;20222;-60
2022/01/26 12:12:44;;;;;;;58.67;30.00;;;;;;;;;;4976807;28;20210;-60
2022/01/26 12:15:15;;;;;;;58.77;29.00;;;;;;;;;;4975495;28;20268;-60
2022/01/26 12:18:12;;;;;;;59.53;30.03;;;;;;;;;;4963787;28;20328;-60
2022/01/26 12:34:30;;;;;;;61.17;28.77;;;;;;;;;;4975963;28;20240;-60
2022/01/26 12:37:05;;;;;;;57.13;29.07;;;;;;;;;;4975388;28;20233;-60
2022/01/26 12:42:25;;;;;;;57.00;29.77;;;;;;;;;;4960462;28;20663;-60
2022/01/26 12:45:00;;;;;;;58.57;29.57;;;;;;;;;;4975927;28;20245;-60
2022/01/26 12:47:28;;;;;;;61.10;29.63;;;;;;;;;;4984130;28;20378;-61
2022/01/26 12:49:54;;;;;;;59.80;29.03;;;;;;;;;;5014126;28;20216;-61
2022/01/26 12:52:19;;;;;;;61.30;29.87;;;;;;;;;;5014479;28;20427;-61
2022/01/26 12:54:45;;;;;;;56.40;28.40;;;;;;;;;;5014578;28;20224;-61
2022/01/26 12:57:12;;;;;;;53.23;28.43;;;;;;;;;;4988117;28;20219;-61
2022/01/26 12:59:37;;;;;;;55.37;28.43;;;;;;;;;;4976937;28;20213;-61
2022/01/26 13:02:02;;;;;;;62.03;30.87;;;;;;;;;;4994702;28;20224;-61
2022/01/26 13:04:28;;;;;;;63.83;30.43;;;;;;;;;;4980374;28;20236;-61
2022/01/26 13:06:53;;;;;;;60.03;30.53;;;;;;;;;;5014816;28;20235;-61
2022/01/26 13:09:21;;;;;;;57.17;29.57;;;;;;;;;;5013838;28;20243;-61
2022/01/26 13:11:47;;;;;;;62.53;31.77;;;;;;;;;;4976840;28;20320;-61
2022/01/26 13:14:16;;;;;;;63.23;32.10;;;;;;;;;;5012272;28;20240;-61
2022/01/26 13:17:11;;;;;;;61.07;30.87;;;;;;;;;;5009421;28;20218;-61
2022/01/26 13:20:13;;;;;;;60.20;30.90;;;;;;;;;;4994437;28;20209;-61
2022/01/26 13:23:02;;;;;;;64.23;30.53;;;;;;;;;;4984341;28;20291;-61
2022/01/26 13:28:14;;;;;;;61.23;31.27;;;;;;;;;;5014227;28;20275;-61
2022/01/26 13:31:00;;;;;;;62.80;31.30;;;;;;;;;;5013791;28;20791;-61
2022/01/26 13:33:56;;;;;;;61.87;29.60;;;;;;;;;;4997756;28;20695;-61
2022/01/26 13:39:09;;;;;;;60.63;30.63;;;;;;;;;;5013214;28;20236;-61
2022/01/26 13:41:45;;;;;;;54.50;29.77;;;;;;;;;;4996445;28;20231;-61
2022/01/26 13:49:29;;;;;;;57.70;29.23;;;;;;;;;;5013408;28;20211;-61
2022/01/26 13:59:21;;;;;;;60.07;29.40;;;;;;;;;;5012817;28;20205;-61
2022/01/26 14:01:49;;;;;;;55.20;28.40;;;;;;;;;;4994207;28;20224;-61
2022/01/26 14:04:15;;;;;;;58.30;29.00;;;;;;;;;;4993232;28;20311;-61
2022/01/26 14:06:41;;;;;;;56.73;28.27;;;;;;;;;;4993214;28;20225;-61
2022/01/26 14:09:06;;;;;;;56.80;28.43;;;;;;;;;;4992759;28;20213;-61
2022/01/26 14:11:31;;;;;;;57.40;30.27;;;;;;;;;;4993896;28;20279;-61
2022/01/26 14:13:58;;;;;;;58.17;29.50;;;;;;;;;;4993097;28;20216;-61
2022/01/26 14:16:25;;;;;;;61.37;29.80;;;;;;;;;;4990817;28;20221;-61
2022/01/26 14:19:06;;;;;;;54.97;28.20;;;;;;;;;;4974110;28;20218;-61
2022/01/26 14:21:55;;;;;;;53.80;28.83;;;;;;;;;;4973325;28;20320;-61
2022/01/26 14:24:32;;;;;;;56.60;28.93;;;;;;;;;;5010245;28;20236;-61
2022/01/26 14:27:00;;;;;;;57.07;29.57;;;;;;;;;;4997238;28;20676;-61
2022/01/26 14:29:35;;;;;;;59.53;28.37;;;;;;;;;;4978832;28;20272;-61
2022/01/26 14:40:06;;;;;;;54.03;28.57;;;;;;;;;;5012611;28;20208;-61
2022/01/26 14:54:02;;;;;;;49.33;26.60;;;;;;;;;;5012422;28;20573;-61
2022/01/26 15:10:05;;;;;;;54.00;29.10;;;;;;;;;;4992569;28;20215;-60
2022/01/26 15:19:04;;;;;;;59.60;31.27;;;;;;;;;;4992528;28;20695;-61
2022/01/26 15:34:05;;;;;;;54.27;28.40;;;;;;;;;;4955946;28;20325;-61
2022/01/26 15:42:24;;;;;;;52.40;27.83;;;;;;;;;;4977479;28;20698;-60
2022/01/26 15:45:04;;;;;;;56.07;27.77;;;;;;;;;;4991586;28;20569;-60
2022/01/26 15:50:43;;;;;;;50.47;27.97;;;;;;;;;;4978524;28;20237;-61
2022/01/26 15:53:23;;;;;;;50.23;27.23;;;;;;;;;;4981520;28;20217;-61
2022/01/26 16:06:57;;;;;;;52.90;27.30;;;;;;;;;;4971818;28;20206;-60
2022/01/26 16:20:41;;;;;;;49.07;26.67;;;;;;;;;;4971418;28;20645;-60
2022/01/26 16:52:26;;;;;;;49.13;26.70;;;;;;;;;;4994953;28;20236;-60
2022/01/26 16:53:24;;;;;;;53.37;27.77;;;;;;;;;;4994928;28;20224;-60
2022/01/26 18:15:29;;;;;;;66.27;35.90;;;;;;;;;;4993454;28;20267;-61
2022/01/26 18:18:13;;;;;;;65.03;34.50;;;;;;;;;;4993558;28;20241;-61
2022/01/26 18:26:14;;;;;;;73.00;42.42;;;;;;;;;;4978613;28;20809;-60
2022/01/26 18:39:44;;;;;;;71.37;38.47;;;;;;;;;;4992557;28;20228;-61
2022/01/26 18:50:13;;;;;;;77.38;45.40;;;;;;;;;;4991734;28;20501;-60
2022/01/26 18:52:38;;;;;;;72.30;39.67;;;;;;;;;;4992865;28;20219;-61
2022/01/26 18:55:05;;;;;;;75.13;39.63;;;;;;;;;;4973875;28;20578;-61
2022/01/26 18:57:30;;;;;;;71.97;39.27;;;;;;;;;;4992993;28;20217;-60
2022/01/26 18:59:55;;;;;;;75.93;39.30;;;;;;;;;;4992924;28;20201;-60
2022/01/26 19:02:23;;;;;;;74.70;39.77;;;;;;;;;;4991626;28;20209;-60
2022/01/26 19:04:49;;;;;;;74.00;37.10;;;;;;;;;;4975442;28;20240;-61
2022/01/26 19:07:15;;;;;;;72.63;37.13;;;;;;;;;;4992502;28;20205;-61
2022/01/26 19:09:44;;;;;;;72.17;37.40;;;;;;;;;;4991984;28;20209;-61
2022/01/26 19:12:12;;;;;;;71.60;37.53;;;;;;;;;;4975861;28;20673;-61
2022/01/26 19:14:40;;;;;;;73.57;38.37;;;;;;;;;;4955513;28;20236;-61
2022/01/26 19:19:40;;;;;;;83.13;41.20;;;;;;;;;;4992951;28;20213;-62
2022/01/26 19:24:46;;;;;;;82.17;42.03;;;;;;;;;;5011305;28;20231;-61
2022/01/26 19:27:19;;;;;;;76.10;38.87;;;;;;;;;;5012118;28;20215;-62
2022/01/26 19:30:02;;;;;;;74.47;37.43;;;;;;;;;;4995754;28;20574;-61
2022/01/26 19:41:46;;;;;;;70.73;36.13;;;;;;;;;;5011845;28;20287;-62
2022/01/26 19:51:09;;;;;;;69.73;34.80;;;;;;;;;;5010823;28;20304;-62
2022/01/26 19:53:35;;;;;;;70.70;38.00;;;;;;;;;;5012149;28;20287;-62
2022/01/26 19:56:00;;;;;;;70.90;36.70;;;;;;;;;;4994495;28;20246;-62
2022/01/26 19:58:25;;;;;;;74.43;36.03;;;;;;;;;;5011169;28;20219;-61
2022/01/26 20:00:51;;;;;;;66.47;33.77;;;;;;;;;;5000272;28;20221;-62
2022/01/26 20:03:16;;;;;;;76.33;36.43;;;;;;;;;;4974721;28;20360;-62
2022/01/26 20:05:42;;;;;;;70.30;33.90;;;;;;;;;;4958240;28;20312;-62
2022/01/26 20:08:15;;;;;;;67.00;34.27;;;;;;;;;;4994637;28;20213;-62
2022/01/26 20:10:48;;;;;;;71.97;35.37;;;;;;;;;;4996058;28;20213;-61
2022/01/26 20:13:22;;;;;;;70.27;34.03;;;;;;;;;;4995067;28;20606;-62
2022/01/26 20:15:47;;;;;;;68.10;34.77;;;;;;;;;;4996423;28;20221;-62
2022/01/26 20:18:13;;;;;;;66.90;33.23;;;;;;;;;;4978529;28;20704;-62
2022/01/26 20:20:38;;;;;;;71.67;35.43;;;;;;;;;;4976032;28;20209;-62
2022/01/26 20:23:03;;;;;;;72.40;33.33;;;;;;;;;;4992077;28;20327;-62
2022/01/26 20:25:29;;;;;;;60.10;31.73;;;;;;;;;;5015292;28;20672;-62
2022/01/26 20:27:56;;;;;;;65.80;32.60;;;;;;;;;;4997189;28;20299;-62